Terminal Aerodrome Forecast
Issued by NWS Blacksburg, VA

Current Version | Previous Version | Graphics & Text | Print | Product List | Glossary On
Versions: 1 2 3 4 5 6 7 8 9 10 11 12 13
000
FTUS41 KRNK 121729
TAFBLF
TAF
KBLF 121729Z 1218/1318 29016G27KT 1SM -SHSN BLSN OVC015
      TEMPO 1219/1221 1/2SM SN OVC015
     FM130000 30016G25KT 5SM -SHSN OVC030
      TEMPO 1300/1304 2SM -SHSN BKN015
     FM130600 30016G25KT P6SM VCSH BKN045
     FM130900 29013G22KT P6SM FEW250=

USA.gov is the U.S. government's official web portal to all federal, state and local government web resources and services.